Time;durP1;ratioP1;P1;durP2;ratioP2;P2;SDS_P1;SDS_P2;PMS_P1;PMS_P2;Temp;Humidity;BMP_temperature;BMP_pressure;BME280_temperature;BME280_humidity;BME280_pressure;Samples;Min_cycle;Max_cycle;Signal;HPM_P1;HPM_P2
2023/10/14 00:01:07;;;;;;;5.25;1.27;;;20.50;99.90;;;;;;5089982;28;20506;-75
2023/10/14 00:03:33;;;;;;;7.53;1.50;;;;;;;;;;5090195;28;20044;-76
2023/10/14 00:06:00;;;;;;;8.05;1.75;;;20.70;99.90;;;;;;5073100;28;20044;-75
2023/10/14 00:08:29;;;;;;;7.93;2.22;;;20.30;99.90;;;;;;5075261;28;20535;-75
2023/10/14 00:10:59;;;;;;;11.65;2.45;;;20.10;99.90;;;;;;5096350;28;20050;-75
2023/10/14 00:13:30;;;;;;;8.07;1.35;;;20.20;99.90;;;;;;5097177;28;20036;-76
2023/10/14 00:16:00;;;;;;;12.20;1.98;;;;;;;;;;5080007;28;20071;-75
2023/10/14 00:18:26;;;;;;;10.85;1.65;;;;;;;;;;5097264;28;20101;-75
2023/10/14 00:20:53;;;;;;;8.88;1.80;;;20.40;99.90;;;;;;5079545;28;20040;-75
2023/10/14 00:23:23;;;;;;;7.03;1.50;;;;;;;;;;5096415;28;20050;-75
2023/10/14 00:25:50;;;;;;;12.07;1.98;;;;;;;;;;5096566;28;20040;-75
2023/10/14 00:28:19;;;;;;;10.85;1.77;;;;;;;;;;5096811;28;20044;-75
2023/10/14 00:30:46;;;;;;;10.05;1.73;;;;;;;;;;5096879;28;20048;-76
2023/10/14 00:33:12;;;;;;;7.75;1.80;;;;;;;;;;5096000;28;20040;-76
2023/10/14 00:35:40;;;;;;;12.32;2.00;;;20.10;99.90;;;;;;5079620;28;20059;-75
2023/10/14 00:38:10;;;;;;;12.93;3.10;;;19.90;99.90;;;;;;5078883;28;20398;-75
2023/10/14 00:40:38;;;;;;;12.23;2.25;;;;;;;;;;5078805;28;20059;-75
2023/10/14 00:43:05;;;;;;;11.10;2.05;;;19.90;99.90;;;;;;5101114;22;20043;-71
2023/10/14 00:45:31;;;;;;;18.02;2.40;;;19.50;99.90;;;;;;5018290;28;20488;-71
2023/10/14 00:47:59;;;;;;;10.88;2.20;;;19.60;99.90;;;;;;5018698;28;20040;-71
2023/10/14 00:50:35;;;;;;;18.92;1.88;;;19.60;99.90;;;;;;5019881;28;20073;-71
2023/10/14 00:53:05;;;;;;;16.35;3.03;;;19.60;99.90;;;;;;5020021;28;20076;-71
2023/10/14 00:58:21;;;;;;;21.75;4.57;;;;;;;;;;5019116;28;20045;-71
2023/10/14 01:01:08;;;;;;;12.68;2.85;;;19.50;99.90;;;;;;5002432;28;20107;-71
2023/10/14 01:03:34;;;;;;;11.43;2.05;;;19.50;99.90;;;;;;5018254;28;20082;-71
2023/10/14 01:08:53;;;;;;;13.10;2.30;;;19.50;99.90;;;;;;5019749;28;20052;-71
2023/10/14 01:11:20;;;;;;;9.05;1.92;;;19.50;99.90;;;;;;5019674;28;20049;-71
2023/10/14 01:13:45;;;;;;;11.93;2.35;;;19.10;99.90;;;;;;5003042;28;20037;-71
2023/10/14 01:16:12;;;;;;;15.43;2.25;;;;;;;;;;5018892;28;20048;-71
2023/10/14 01:18:39;;;;;;;11.63;2.20;;;19.60;99.90;;;;;;5019414;28;20485;-71
2023/10/14 01:21:08;;;;;;;10.52;2.95;;;19.30;99.90;;;;;;5033870;28;20048;-71
2023/10/14 01:23:36;;;;;;;14.13;3.03;;;19.30;99.90;;;;;;5016263;28;20038;-72
2023/10/14 01:26:06;;;;;;;12.90;2.08;;;19.70;99.90;;;;;;5049649;28;20041;-72
2023/10/14 01:28:32;;;;;;;10.90;2.38;;;19.50;99.90;;;;;;5048766;28;20416;-71
2023/10/14 01:31:40;;;;;;;11.23;2.80;;;19.50;99.90;;;;;;5015870;28;20517;-72
2023/10/14 01:34:07;;;;;;;17.88;3.08;;;19.40;99.90;;;;;;5049608;28;20034;-71
2023/10/14 01:36:41;;;;;;;15.52;2.25;;;19.40;99.90;;;;;;5049637;28;20049;-71
2023/10/14 01:39:21;;;;;;;9.60;2.08;;;19.20;99.90;;;;;;5049787;28;20146;-71
2023/10/14 01:41:47;;;;;;;9.30;2.08;;;19.40;99.90;;;;;;5015452;28;20052;-71
2023/10/14 01:44:21;;;;;;;9.25;2.15;;;;;;;;;;5015527;28;20038;-72
2023/10/14 01:46:47;;;;;;;8.00;1.50;;;;;;;;;;5015108;28;20053;-71
2023/10/14 01:49:19;;;;;;;15.00;2.30;;;19.10;99.90;;;;;;5016210;28;20116;-71
2023/10/14 01:51:49;;;;;;;10.07;1.80;;;19.20;99.90;;;;;;4999668;28;20033;-71
2023/10/14 01:54:15;;;;;;;11.10;2.20;;;18.90;99.90;;;;;;5049496;28;20044;-71
2023/10/14 01:56:42;;;;;;;12.13;1.90;;;19.00;99.90;;;;;;5049554;28;20501;-71
2023/10/14 01:59:08;;;;;;;8.57;3.03;;;18.80;99.90;;;;;;5049297;28;20505;-71
2023/10/14 02:01:35;;;;;;;9.25;1.90;;;18.80;99.90;;;;;;5049059;28;20044;-71
2023/10/14 02:04:02;;;;;;;10.27;2.17;;;19.10;99.90;;;;;;5049052;28;20049;-72
2023/10/14 02:06:30;;;;;;;13.70;2.10;;;19.10;99.90;;;;;;5048321;28;20124;-71
2023/10/14 02:09:00;;;;;;;11.35;2.85;;;18.80;99.90;;;;;;5048758;28;20045;-70
2023/10/14 02:11:33;;;;;;;10.65;2.70;;;18.90;99.90;;;;;;5013955;28;20614;-71
2023/10/14 02:14:00;;;;;;;11.57;1.98;;;19.00;99.90;;;;;;5015523;28;20037;-70
2023/10/14 02:16:25;;;;;;;15.05;2.00;;;19.00;99.90;;;;;;5049151;28;20449;-70
2023/10/14 02:19:00;;;;;;;17.60;2.22;;;19.40;99.90;;;;;;5015678;28;20041;-71
2023/10/14 02:21:31;;;;;;;12.85;1.92;;;19.00;99.90;;;;;;4999458;28;20488;-71
2023/10/14 02:24:00;;;;;;;11.85;2.33;;;19.00;99.90;;;;;;5048440;28;20132;-71
2023/10/14 02:26:28;;;;;;;9.90;2.30;;;19.10;99.90;;;;;;5048455;28;20524;-71
2023/10/14 02:28:54;;;;;;;11.30;1.90;;;19.00;99.90;;;;;;5048668;28;20044;-71
2023/10/14 02:33:54;;;;;;;14.15;2.30;;;18.80;99.90;;;;;;5015228;28;20041;-71
2023/10/14 02:36:28;;;;;;;10.95;2.13;;;18.90;99.90;;;;;;5048355;28;20049;-71
2023/10/14 02:38:54;;;;;;;15.05;2.47;;;19.10;99.90;;;;;;4999001;28;20045;-70
2023/10/14 02:41:20;;;;;;;12.05;2.55;;;19.20;99.90;;;;;;5048147;28;20386;-71
2023/10/14 02:43:50;;;;;;;7.25;1.65;;;19.00;99.90;;;;;;5032803;28;20171;-70
2023/10/14 02:46:21;;;;;;;10.57;1.92;;;19.00;99.90;;;;;;4998731;28;20033;-72
2023/10/14 02:48:53;;;;;;;11.20;2.55;;;18.70;99.90;;;;;;5048279;28;20037;-71
2023/10/14 02:54:04;;;;;;;9.15;2.17;;;19.60;99.90;;;;;;5014890;28;20187;-71
2023/10/14 02:57:12;;;;;;;15.65;2.25;;;18.90;99.90;;;;;;5048205;28;20124;-71
2023/10/14 02:59:43;;;;;;;9.35;2.17;;;18.80;99.90;;;;;;5010384;28;20049;-71
2023/10/14 03:02:14;;;;;;;9.27;3.08;;;18.80;99.90;;;;;;5047878;28;20052;-71
2023/10/14 03:07:27;;;;;;;15.38;2.47;;;18.70;99.90;;;;;;5013509;28;20132;-72
2023/10/14 03:09:58;;;;;;;12.02;1.95;;;18.50;99.90;;;;;;5047331;28;20124;-71
2023/10/14 03:12:25;;;;;;;11.45;1.83;;;18.70;99.90;;;;;;5047305;28;20041;-71
2023/10/14 03:14:54;;;;;;;9.85;2.95;;;19.20;99.90;;;;;;5046653;28;20029;-71
2023/10/14 03:17:25;;;;;;;12.20;2.17;;;19.40;99.90;;;;;;5012858;28;20073;-71
2023/10/14 03:19:53;;;;;;;14.88;2.30;;;18.40;99.90;;;;;;5045696;28;20037;-71
2023/10/14 03:22:22;;;;;;;10.13;2.25;;;18.70;99.90;;;;;;5046023;28;20077;-71
2023/10/14 03:24:50;;;;;;;15.63;2.65;;;18.20;99.90;;;;;;5046914;28;20132;-71
2023/10/14 03:27:18;;;;;;;11.70;2.42;;;18.40;99.90;;;;;;5047344;28;20494;-71
2023/10/14 03:29:51;;;;;;;14.98;4.03;;;18.50;99.90;;;;;;5047299;28;20033;-71
2023/10/14 03:32:17;;;;;;;;;;;18.90;99.90;;;;;;5014630;28;20049;-71
2023/10/14 03:34:43;;;;;;;13.38;2.90;;;18.70;99.90;;;;;;5031974;28;19917;-71
2023/10/14 03:37:25;;;;;;;7.45;1.58;;;18.40;99.90;;;;;;5034175;28;20049;-71
2023/10/14 03:40:35;;;;;;;11.50;1.95;;;18.40;99.90;;;;;;5034023;28;20041;-71
2023/10/14 03:42:51;;;;;;;12.70;2.50;;;19.00;99.90;;;;;;5033003;28;20053;-72
2023/10/14 03:45:28;;;;;;;10.63;2.08;;;;;;;;;;5016075;28;20044;-71
2023/10/14 03:48:00;;;;;;;13.98;2.65;;;;;;;;;;5032686;28;20448;-71
2023/10/14 03:50:26;;;;;;;13.13;1.90;;;;;;;;;;5017455;28;20177;-71
2023/10/14 03:52:55;;;;;;;12.13;2.72;;;;;;;;;;5033577;28;20091;-70
2023/10/14 03:55:24;;;;;;;13.32;2.60;;;;;;;;;;5033543;28;20037;-71
2023/10/14 03:58:04;;;;;;;14.75;2.47;;;;;;;;;;5033704;28;20080;-71
2023/10/14 04:00:36;;;;;;;12.80;2.53;;;;;;;;;;5033612;28;20045;-71
2023/10/14 04:03:03;;;;;;;10.47;2.53;;;;;;;;;;5016229;28;20072;-71
2023/10/14 04:05:30;;;;;;;11.88;2.08;;;;;;;;;;5032802;28;20386;-71
2023/10/14 04:07:57;;;;;;;9.90;1.80;;;;;;;;;;5032098;28;20122;-71
2023/10/14 04:10:23;;;;;;;14.93;1.80;;;18.50;99.90;;;;;;5015709;28;20043;-71
2023/10/14 04:12:56;;;;;;;12.77;2.40;;;18.50;99.90;;;;;;5016024;28;20120;-72
2023/10/14 04:17:58;;;;;;;9.90;1.85;;;18.90;99.90;;;;;;5031773;28;20056;-71
2023/10/14 04:20:29;;;;;;;16.50;2.47;;;18.30;99.90;;;;;;5031503;28;20037;-71
2023/10/14 04:22:55;;;;;;;11.20;2.05;;;18.30;99.90;;;;;;5032223;28;20045;-71
2023/10/14 04:25:24;;;;;;;13.45;2.80;;;18.40;99.90;;;;;;5033522;28;20090;-71
2023/10/14 04:30:42;;;;;;;6.60;1.83;;;18.40;99.90;;;;;;5032409;28;20077;-71
2023/10/14 04:33:20;;;;;;;12.35;1.83;;;18.30;99.90;;;;;;5016644;28;20037;-71
2023/10/14 04:36:08;;;;;;;13.23;2.17;;;18.40;99.90;;;;;;5033449;28;20041;-70
2023/10/14 04:38:42;;;;;;;13.77;2.30;;;18.10;99.90;;;;;;5032793;28;20071;-71
2023/10/14 04:41:14;;;;;;;14.90;2.50;;;18.20;99.90;;;;;;5032255;28;20102;-71
2023/10/14 04:44:00;;;;;;;11.77;2.20;;;18.00;99.90;;;;;;5033140;28;20044;-71
2023/10/14 04:46:32;;;;;;;11.40;2.60;;;18.30;99.90;;;;;;5050452;28;20455;-71
2023/10/14 04:48:59;;;;;;;11.77;2.10;;;;;;;;;;5050985;28;20041;-70
2023/10/14 04:51:36;;;;;;;10.90;2.25;;;18.20;99.90;;;;;;5033212;28;20073;-72
2023/10/14 04:54:02;;;;;;;12.23;2.38;;;;;;;;;;5051121;28;20073;-70
2023/10/14 04:56:31;;;;;;;21.83;3.67;;;;;;;;;;5052404;28;20072;-71
2023/10/14 04:58:57;;;;;;;17.80;2.63;;;18.10;99.90;;;;;;5034991;28;20080;-71
2023/10/14 05:01:27;;;;;;;12.38;2.75;;;18.10;99.90;;;;;;5018919;28;20504;-71
2023/10/14 05:03:57;;;;;;;12.75;2.20;;;18.10;99.90;;;;;;5035215;28;20048;-71
2023/10/14 05:06:23;;;;;;;11.95;2.55;;;18.30;99.90;;;;;;5035038;28;20114;-71
2023/10/14 05:08:55;;;;;;;12.13;2.30;;;18.20;99.90;;;;;;5035934;28;20040;-71
2023/10/14 05:11:25;;;;;;;11.57;2.33;;;18.20;99.90;;;;;;5036589;28;20037;-71
2023/10/14 05:14:14;;;;;;;13.52;2.30;;;18.10;99.90;;;;;;5036478;28;20033;-71
2023/10/14 05:19:29;;;;;;;10.68;2.10;;;;;;;;;;5036973;28;20068;-72
2023/10/14 05:22:03;;;;;;;10.63;2.08;;;18.20;99.90;;;;;;5036345;28;20110;-71
2023/10/14 05:24:29;;;;;;;10.93;2.28;;;18.10;99.90;;;;;;5054303;28;20072;-71
2023/10/14 05:27:01;;;;;;;13.00;1.98;;;18.10;99.90;;;;;;5053690;28;20538;-71
2023/10/14 05:29:28;;;;;;;11.35;1.90;;;18.10;99.90;;;;;;5053964;28;20041;-71
2023/10/14 05:32:06;;;;;;;14.65;2.67;;;18.30;99.90;;;;;;5019546;28;20033;-71
2023/10/14 05:34:33;;;;;;;11.55;2.33;;;18.30;99.90;;;;;;5033910;28;20036;-70
2023/10/14 05:37:00;;;;;;;14.45;3.22;;;18.00;99.90;;;;;;5015975;28;20515;-71
2023/10/14 05:39:27;;;;;;;16.88;4.07;;;;;;;;;;5015929;28;20084;-71
2023/10/14 05:41:58;;;;;;;19.48;2.33;;;18.30;99.90;;;;;;5016578;28;20083;-70
2023/10/14 05:44:30;;;;;;;10.45;2.15;;;18.20;99.90;;;;;;5016685;28;20107;-71
2023/10/14 05:46:56;;;;;;;10.40;2.63;;;18.20;99.90;;;;;;5016471;28;20041;-71
2023/10/14 05:49:24;;;;;;;17.13;2.90;;;19.00;99.90;;;;;;5016804;28;20029;-72
2023/10/14 05:51:53;;;;;;;13.00;2.22;;;18.20;99.90;;;;;;5016229;28;20041;-70
2023/10/14 05:54:25;;;;;;;17.48;3.80;;;18.30;99.90;;;;;;5016051;28;20087;-70
2023/10/14 05:56:51;;;;;;;18.73;3.53;;;18.00;99.90;;;;;;5016107;28;20046;-70
2023/10/14 05:59:17;;;;;;;12.10;2.10;;;18.40;99.90;;;;;;5016106;28;20112;-70
2023/10/14 06:01:46;;;;;;;12.68;2.03;;;17.90;99.90;;;;;;5033752;28;20061;-71
2023/10/14 06:04:13;;;;;;;15.43;3.00;;;18.00;99.90;;;;;;5015862;28;20068;-71
2023/10/14 06:06:40;;;;;;;16.73;3.33;;;18.30;99.90;;;;;;5015474;28;20049;-71
2023/10/14 06:09:08;;;;;;;17.50;2.08;;;18.10;99.90;;;;;;5015892;28;20041;-71
2023/10/14 06:11:33;;;;;;;8.85;1.60;;;17.90;99.90;;;;;;4999344;28;20046;-71
2023/10/14 06:14:02;;;;;;;12.70;2.03;;;18.00;99.90;;;;;;5015785;28;20041;-71
2023/10/14 06:16:29;;;;;;;12.70;2.50;;;17.80;99.90;;;;;;4999500;28;20057;-71
2023/10/14 06:18:56;;;;;;;11.02;1.98;;;17.90;99.90;;;;;;5015591;28;20052;-71
2023/10/14 06:21:27;;;;;;;11.02;2.03;;;18.10;99.90;;;;;;4998692;28;20043;-71
2023/10/14 06:23:53;;;;;;;8.70;2.08;;;18.00;99.90;;;;;;5045864;28;20073;-71
2023/10/14 06:26:19;;;;;;;16.13;2.50;;;18.00;99.90;;;;;;5048610;28;20068;-71
2023/10/14 06:28:45;;;;;;;14.00;4.75;;;18.10;99.90;;;;;;5001430;28;20498;-71
2023/10/14 06:31:12;;;;;;;15.20;2.20;;;18.30;99.90;;;;;;5017802;28;20129;-71
2023/10/14 06:33:40;;;;;;;10.32;1.95;;;18.20;99.90;;;;;;5005965;28;20517;-70
2023/10/14 06:36:10;;;;;;;12.63;2.15;;;18.70;99.90;;;;;;5011788;28;20048;-71
2023/10/14 06:38:37;;;;;;;7.30;2.00;;;18.40;99.90;;;;;;5011672;28;20041;-71
2023/10/14 06:41:05;;;;;;;8.85;1.67;;;;;;;;;;5045983;28;20041;-71
2023/10/14 06:43:33;;;;;;;12.88;2.85;;;18.20;99.90;;;;;;5014534;28;20121;-72
2023/10/14 06:45:59;;;;;;;10.88;2.25;;;18.00;99.90;;;;;;5048116;28;20045;-71
2023/10/14 06:48:25;;;;;;;11.52;2.50;;;18.90;99.90;;;;;;4998900;28;20413;-71
2023/10/14 06:50:54;;;;;;;10.02;2.75;;;18.40;99.90;;;;;;5047982;28;20619;-72
2023/10/14 06:53:20;;;;;;;10.43;2.50;;;18.30;99.90;;;;;;5048051;28;20444;-71
2023/10/14 06:55:45;;;;;;;13.27;2.00;;;19.30;99.90;;;;;;5014772;28;20128;-71
2023/10/14 06:58:13;;;;;;;11.45;1.83;;;18.30;99.90;;;;;;5014836;28;20409;-71
2023/10/14 07:00:40;;;;;;;12.73;2.63;;;18.10;99.90;;;;;;5047951;28;20037;-71
2023/10/14 07:03:14;;;;;;;17.25;3.05;;;18.20;99.90;;;;;;5047681;28;20049;-71
2023/10/14 07:05:46;;;;;;;27.75;3.10;;;18.10;99.90;;;;;;5047918;28;20048;-71
2023/10/14 07:08:13;;;;;;;12.52;2.65;;;18.40;99.90;;;;;;5047875;28;20037;-71
2023/10/14 07:10:39;;;;;;;10.27;2.88;;;;;;;;;;5048031;28;20034;-71
2023/10/14 07:13:05;;;;;;;12.20;2.65;;;18.50;99.90;;;;;;5014465;28;20037;-71
2023/10/14 07:15:36;;;;;;;12.15;2.22;;;18.50;99.90;;;;;;5047881;28;20068;-72
2023/10/14 07:18:02;;;;;;;16.08;2.65;;;18.60;99.90;;;;;;5047009;28;20124;-72
2023/10/14 07:20:31;;;;;;;12.85;2.33;;;18.60;99.90;;;;;;5014581;28;20478;-71
2023/10/14 07:22:58;;;;;;;16.25;2.80;;;18.50;99.90;;;;;;5047709;28;20045;-71
2023/10/14 07:25:31;;;;;;;9.15;2.35;;;18.70;99.90;;;;;;5047818;28;20042;-72
2023/10/14 07:27:59;;;;;;;22.40;2.85;;;18.70;99.90;;;;;;5014521;28;20034;-72
2023/10/14 07:30:29;;;;;;;15.30;2.38;;;18.70;99.90;;;;;;5047695;28;20037;-72
2023/10/14 07:32:56;;;;;;;18.88;2.22;;;18.80;99.90;;;;;;5047255;28;20120;-71
2023/10/14 07:35:22;;;;;;;16.00;2.10;;;18.80;99.90;;;;;;5014727;28;20132;-71
2023/10/14 07:37:50;;;;;;;14.43;2.47;;;18.90;99.90;;;;;;5014450;28;20080;-71
2023/10/14 07:40:24;;;;;;;9.70;2.15;;;19.00;99.90;;;;;;5047359;28;20045;-71
2023/10/14 07:42:54;;;;;;;10.50;2.05;;;19.00;99.90;;;;;;4997836;28;20045;-72
2023/10/14 07:45:29;;;;;;;12.30;2.17;;;18.90;99.90;;;;;;5013981;28;20045;-71
2023/10/14 07:47:56;;;;;;;7.68;1.80;;;18.90;99.90;;;;;;5047317;28;20555;-71
2023/10/14 07:50:31;;;;;;;18.13;2.20;;;19.30;99.90;;;;;;5047155;28;20095;-71
2023/10/14 07:53:07;;;;;;;5.15;1.40;;;19.10;99.90;;;;;;5013858;28;20121;-71
2023/10/14 07:55:35;;;;;;;13.30;2.38;;;19.60;99.90;;;;;;5047432;28;20050;-72
2023/10/14 07:58:01;;;;;;;8.85;1.70;;;19.30;99.90;;;;;;5014096;28;20436;-71
2023/10/14 08:00:37;;;;;;;9.10;1.95;;;20.60;99.90;;;;;;5047074;28;20041;-72
2023/10/14 08:03:06;;;;;;;12.93;2.22;;;19.40;99.90;;;;;;5046752;28;20052;-71
2023/10/14 08:05:36;;;;;;;7.25;1.67;;;19.50;99.90;;;;;;5046941;28;20050;-72
2023/10/14 08:08:06;;;;;;;15.02;2.17;;;19.60;99.90;;;;;;4997258;28;20052;-71
2023/10/14 08:10:32;;;;;;;13.13;2.65;;;19.70;99.90;;;;;;5047221;28;20052;-71
2023/10/14 08:13:01;;;;;;;7.20;1.60;;;19.50;99.90;;;;;;5046908;28;20159;-72
2023/10/14 08:15:29;;;;;;;13.88;3.00;;;19.60;99.90;;;;;;5046916;28;20041;-71
2023/10/14 08:17:58;;;;;;;8.23;2.22;;;19.80;99.90;;;;;;4997404;28;20049;-72
2023/10/14 08:20:25;;;;;;;14.15;2.35;;;20.60;99.90;;;;;;5046988;28;20033;-72
2023/10/14 08:22:51;;;;;;;9.55;1.70;;;19.90;99.90;;;;;;5046624;28;20045;-71
2023/10/14 08:25:18;;;;;;;8.82;1.80;;;20.10;99.90;;;;;;5013678;28;20067;-71
2023/10/14 08:27:46;;;;;;;11.65;2.83;;;20.00;99.90;;;;;;5031541;28;20404;-72
2023/10/14 08:30:12;;;;;;;8.02;1.60;;;20.10;99.90;;;;;;4999249;28;20037;-72
2023/10/14 08:32:39;;;;;;;9.80;2.17;;;19.90;99.90;;;;;;5050573;28;20048;-72
2023/10/14 08:35:15;;;;;;;9.93;1.55;;;20.60;99.90;;;;;;5001141;28;20083;-73
2023/10/14 08:37:49;;;;;;;6.57;2.13;;;19.50;99.90;;;;;;5051071;28;20405;-72
2023/10/14 08:40:25;;;;;;;5.18;1.52;;;19.50;99.90;;;;;;5050701;28;20116;-72
2023/10/14 08:42:54;;;;;;;12.18;2.20;;;19.40;99.90;;;;;;5050480;28;20042;-72
2023/10/14 08:45:21;;;;;;;10.23;2.00;;;20.20;99.90;;;;;;5017269;28;20037;-72
2023/10/14 08:47:52;;;;;;;13.27;2.42;;;19.60;99.90;;;;;;5017371;28;20124;-72
2023/10/14 08:50:24;;;;;;;7.90;1.73;;;20.00;99.90;;;;;;5050809;28;20375;-72
2023/10/14 08:52:53;;;;;;;7.32;1.80;;;19.80;99.90;;;;;;5050268;28;20524;-72
2023/10/14 08:55:19;;;;;;;11.38;1.83;;;20.10;99.90;;;;;;5000865;28;20116;-71
2023/10/14 08:57:46;;;;;;;12.30;1.70;;;20.00;99.90;;;;;;5050354;28;20041;-71
2023/10/14 09:00:20;;;;;;;11.05;2.53;;;20.10;99.90;;;;;;5050236;28;20041;-71
2023/10/14 09:02:50;;;;;;;12.05;2.20;;;20.00;99.90;;;;;;5034773;28;20038;-70
2023/10/14 09:05:16;;;;;;;9.32;2.17;;;20.00;99.90;;;;;;5017211;28;20033;-71
2023/10/14 09:07:55;;;;;;;11.23;2.10;;;21.20;99.90;;;;;;5034915;28;20084;-71
2023/10/14 09:10:24;;;;;;;6.28;1.42;;;20.10;99.90;;;;;;5050083;28;20485;-71
2023/10/14 09:13:00;;;;;;;8.50;1.88;;;20.50;99.90;;;;;;5050155;28;20128;-71
2023/10/14 09:15:36;;;;;;;9.48;1.95;;;20.40;99.90;;;;;;5017211;28;20480;-71
2023/10/14 09:18:02;;;;;;;9.70;1.70;;;20.20;99.90;;;;;;5050036;28;20088;-71
2023/10/14 09:20:36;;;;;;;15.48;2.97;;;19.90;99.90;;;;;;5000836;28;20095;-71
2023/10/14 09:23:18;;;;;;;13.70;2.70;;;19.80;99.90;;;;;;5016304;28;20045;-71
2023/10/14 09:25:52;;;;;;;14.40;2.53;;;19.60;99.90;;;;;;5049808;28;20152;-71
2023/10/14 09:28:20;;;;;;;19.52;3.55;;;20.00;99.90;;;;;;5049957;28;20033;-71
2023/10/14 09:30:50;;;;;;;9.43;1.83;;;19.80;99.90;;;;;;5016848;28;20044;-71
2023/10/14 09:33:21;;;;;;;11.57;1.90;;;20.10;99.90;;;;;;5049369;28;20516;-71
2023/10/14 09:35:49;;;;;;;12.10;2.25;;;20.30;99.90;;;;;;5016455;28;20128;-71
2023/10/14 09:38:21;;;;;;;13.75;2.22;;;20.30;99.90;;;;;;5049662;28;20037;-71
2023/10/14 09:40:54;;;;;;;9.87;1.80;;;20.60;99.90;;;;;;5049124;28;20133;-72
2023/10/14 09:43:24;;;;;;;13.27;1.80;;;20.90;99.90;;;;;;5016125;28;20042;-72
2023/10/14 09:45:56;;;;;;;9.25;2.10;;;20.50;99.90;;;;;;5034125;28;20041;-72
2023/10/14 09:48:29;;;;;;;6.13;1.27;;;19.60;99.90;;;;;;5049863;28;20033;-72
2023/10/14 09:50:55;;;;;;;;;;;19.60;99.90;;;;;;5049950;28;20523;-71
2023/10/14 09:53:26;;;;;;;5.60;0.93;;;19.20;99.90;;;;;;4999993;28;19917;-71
2023/10/14 09:55:55;;;;;;;3.28;1.08;;;19.60;99.90;;;;;;5016298;28;20038;-72
2023/10/14 09:58:23;;;;;;;3.58;0.80;;;19.80;99.90;;;;;;5049137;28;20041;-72
2023/10/14 10:00:49;;;;;;;3.70;0.93;;;19.60;99.90;;;;;;5049226;28;20065;-72
2023/10/14 10:03:19;;;;;;;3.15;0.50;;;19.90;99.90;;;;;;5015998;28;20041;-71
2023/10/14 10:06:06;;;;;;;4.28;1.00;;;19.70;99.90;;;;;;5049058;28;20045;-71
2023/10/14 10:08:50;;;;;;;3.03;0.80;;;19.50;99.90;;;;;;5015949;28;20064;-72
2023/10/14 10:11:23;;;;;;;1.92;0.82;;;19.60;99.90;;;;;;5048736;28;20042;-72
2023/10/14 10:13:53;;;;;;;4.90;1.35;;;19.40;99.90;;;;;;5049010;28;20501;-71
2023/10/14 10:16:20;;;;;;;10.00;1.40;;;19.30;99.90;;;;;;5048946;28;20516;-72
2023/10/14 10:18:56;;;;;;;6.45;2.05;;;19.50;99.90;;;;;;4999436;28;20056;-71
2023/10/14 10:21:29;;;;;;;5.25;1.40;;;19.70;99.90;;;;;;4999416;28;20408;-72
2023/10/14 10:24:20;;;;;;;10.30;1.58;;;19.90;99.90;;;;;;4999299;28;20148;-72
2023/10/14 10:27:03;;;;;;;3.53;1.10;;;20.20;99.90;;;;;;5001763;28;20049;-72
2023/10/14 10:29:33;;;;;;;;;;;20.10;99.90;;;;;;5016164;28;20045;-72
2023/10/14 10:32:11;;;;;;;10.48;2.13;;;20.20;99.90;;;;;;5015511;28;19917;-72
2023/10/14 10:35:05;;;;;;;6.55;1.50;;;20.20;99.90;;;;;;5048781;28;20033;-71
2023/10/14 10:37:41;;;;;;;9.27;1.90;;;20.40;99.90;;;;;;5013201;28;20059;-72
2023/10/14 10:40:11;;;;;;;12.32;2.03;;;20.50;99.90;;;;;;5048613;28;20064;-72
2023/10/14 10:42:47;;;;;;;11.32;1.90;;;20.70;99.90;;;;;;5048404;28;20091;-73
2023/10/14 10:45:21;;;;;;;11.57;1.50;;;20.60;99.90;;;;;;5048222;28;20065;-72
2023/10/14 10:47:54;;;;;;;10.85;1.83;;;20.50;99.90;;;;;;5048345;28;20037;-73
2023/10/14 10:50:21;;;;;;;6.38;1.75;;;20.60;99.90;;;;;;5048098;28;20033;-72
2023/10/14 10:53:16;;;;;;;9.13;2.00;;;20.50;99.90;;;;;;5047918;28;20041;-72
2023/10/14 10:55:48;;;;;;;14.60;2.15;;;20.80;99.90;;;;;;5013037;28;20049;-71
2023/10/14 10:58:15;;;;;;;14.23;2.35;;;20.80;99.90;;;;;;5048179;28;20563;-71
2023/10/14 11:00:42;;;;;;;13.25;2.35;;;21.10;99.90;;;;;;5048425;28;20053;-72
2023/10/14 11:03:13;;;;;;;7.35;1.95;;;21.20;99.90;;;;;;5047686;28;20500;-71
2023/10/14 11:05:41;;;;;;;12.32;2.47;;;21.10;99.90;;;;;;5047922;28;20513;-72
2023/10/14 11:08:07;;;;;;;10.10;2.63;;;20.80;99.90;;;;;;5047983;28;20037;-72
2023/10/14 11:10:38;;;;;;;12.90;2.13;;;21.60;99.90;;;;;;5015049;28;20030;-72
2023/10/14 11:13:05;;;;;;;12.35;2.55;;;20.10;99.90;;;;;;5014545;28;20045;-72
2023/10/14 11:15:31;;;;;;;13.70;3.13;;;19.70;99.90;;;;;;4998532;28;20386;-72
2023/10/14 11:17:58;;;;;;;9.95;2.70;;;19.70;99.90;;;;;;5047703;28;20041;-72
2023/10/14 11:20:45;;;;;;;14.00;2.00;;;19.50;99.90;;;;;;5047890;28;20515;-71
2023/10/14 11:23:11;;;;;;;10.00;1.60;;;19.40;99.90;;;;;;5014212;28;20045;-72
2023/10/14 11:25:40;;;;;;;9.13;1.83;;;19.60;99.90;;;;;;4998169;28;20041;-72
2023/10/14 11:28:08;;;;;;;8.57;1.27;;;19.80;99.90;;;;;;5047478;28;20041;-72
2023/10/14 11:30:41;;;;;;;7.88;1.42;;;19.40;99.90;;;;;;5014444;28;20045;-72
2023/10/14 11:33:09;;;;;;;10.90;1.70;;;19.50;99.90;;;;;;4997811;28;20116;-70
2023/10/14 11:35:37;;;;;;;5.90;1.55;;;19.30;99.90;;;;;;5047532;28;20049;-70
2023/10/14 11:38:06;;;;;;;6.93;2.13;;;20.10;99.90;;;;;;4998061;28;20123;-70
2023/10/14 11:40:36;;;;;;;13.10;2.42;;;19.20;99.90;;;;;;5047637;28;20057;-71
2023/10/14 11:43:03;;;;;;;6.50;1.58;;;19.10;99.90;;;;;;5047253;28;20068;-71
2023/10/14 11:45:35;;;;;;;13.90;2.35;;;19.30;99.90;;;;;;4997933;28;20083;-71
2023/10/14 11:48:01;;;;;;;12.80;2.50;;;19.40;99.90;;;;;;4997717;28;20037;-72
2023/10/14 11:50:29;;;;;;;14.70;2.10;;;20.20;99.90;;;;;;5047479;28;20053;-72
2023/10/14 11:52:57;;;;;;;11.85;2.22;;;19.60;99.90;;;;;;5013849;28;20052;-72
2023/10/14 11:55:25;;;;;;;17.50;2.25;;;19.40;99.90;;;;;;5047460;28;20037;-71
2023/10/14 11:57:54;;;;;;;13.68;2.20;;;19.60;99.90;;;;;;5031774;28;20059;-71
2023/10/14 12:00:21;;;;;;;13.70;2.90;;;19.70;99.90;;;;;;4997746;28;20064;-71
2023/10/14 12:02:50;;;;;;;12.60;2.60;;;20.40;99.90;;;;;;5046899;28;20041;-71
2023/10/14 12:05:16;;;;;;;11.98;2.22;;;20.60;99.90;;;;;;5046445;28;20060;-72
2023/10/14 12:07:43;;;;;;;13.75;2.60;;;20.10;99.90;;;;;;5031652;28;20045;-72
2023/10/14 12:10:09;;;;;;;14.32;2.60;;;20.20;99.90;;;;;;5047062;28;20048;-71
2023/10/14 12:12:37;;;;;;;10.68;2.65;;;20.10;99.90;;;;;;5031632;28;20037;-72
2023/10/14 12:15:05;;;;;;;9.88;2.50;;;20.50;99.90;;;;;;4997754;28;20041;-72
2023/10/14 12:17:38;;;;;;;14.45;3.08;;;19.90;99.90;;;;;;5030251;28;20041;-72
2023/10/14 12:20:04;;;;;;;13.07;3.13;;;19.70;99.90;;;;;;5031634;28;20487;-72
2023/10/14 12:22:31;;;;;;;18.45;3.00;;;19.90;99.90;;;;;;5046582;28;20287;-72
2023/10/14 12:24:56;;;;;;;8.95;2.47;;;20.70;99.90;;;;;;5047164;28;20405;-72
2023/10/14 12:27:25;;;;;;;12.02;2.67;;;;;;;;;;4997350;28;20045;-72
2023/10/14 12:29:52;;;;;;;12.93;2.58;;;20.40;99.90;;;;;;5013815;28;20042;-72
2023/10/14 12:32:18;;;;;;;14.00;2.90;;;20.90;99.90;;;;;;5013508;28;20046;-72
2023/10/14 12:34:46;;;;;;;15.68;2.60;;;20.10;99.90;;;;;;5031223;28;20041;-71
2023/10/14 12:37:18;;;;;;;9.73;2.65;;;20.60;99.90;;;;;;5013887;28;20037;-72
2023/10/14 12:39:48;;;;;;;10.13;3.15;;;20.40;99.90;;;;;;5046819;28;20052;-72
2023/10/14 12:42:18;;;;;;;9.75;2.78;;;20.20;99.90;;;;;;5046492;28;20111;-72
2023/10/14 12:44:43;;;;;;;9.75;2.33;;;21.10;99.90;;;;;;5047142;28;20055;-72
2023/10/14 12:47:13;;;;;;;12.82;2.40;;;20.70;99.90;;;;;;5046349;28;20120;-72
2023/10/14 12:49:40;;;;;;;11.85;2.58;;;20.90;99.90;;;;;;5046597;28;20485;-72
2023/10/14 12:52:12;;;;;;;14.75;2.80;;;20.40;99.90;;;;;;5046318;28;20087;-72
2023/10/14 12:54:49;;;;;;;6.53;1.95;;;21.20;99.90;;;;;;4997221;28;20037;-72
2023/10/14 12:57:16;;;;;;;14.85;2.13;;;21.10;99.90;;;;;;5013474;28;20128;-72
2023/10/14 12:59:42;;;;;;;8.18;2.58;;;20.40;99.90;;;;;;5046705;28;20050;-72
2023/10/14 13:02:08;;;;;;;7.93;1.92;;;20.50;99.90;;;;;;5013335;28;20053;-72
2023/10/14 13:04:41;;;;;;;13.07;2.55;;;20.70;99.90;;;;;;5046402;28;20048;-72
2023/10/14 13:07:08;;;;;;;7.05;1.58;;;20.40;99.90;;;;;;5046167;28;20417;-72
2023/10/14 13:09:35;;;;;;;16.58;4.00;;;21.30;99.90;;;;;;5046449;28;20038;-72
2023/10/14 13:12:17;;;;;;;10.13;1.95;;;21.20;99.90;;;;;;5046408;28;20044;-72
2023/10/14 13:14:44;;;;;;;7.03;2.47;;;20.90;99.90;;;;;;5046454;28;20033;-72
2023/10/14 13:17:10;;;;;;;16.52;2.22;;;21.20;99.90;;;;;;5015004;28;20517;-72
2023/10/14 13:19:36;;;;;;;14.77;2.60;;;20.50;99.90;;;;;;5000553;28;20041;-72
2023/10/14 13:22:13;;;;;;;15.93;2.67;;;20.10;99.90;;;;;;5049818;28;20099;-72
2023/10/14 13:24:40;;;;;;;16.15;2.40;;;20.00;99.90;;;;;;5000350;28;20527;-72
2023/10/14 13:27:06;;;;;;;13.57;2.30;;;20.00;99.90;;;;;;5049794;28;20046;-72